sensor_id;sensor_type;location;lat;lon;timestamp;P1;durP1;ratioP1;P2;durP2;ratioP2
32864;SDS011;19219;44.500;11.188;2023-04-16T00:02:04;9.65;;;5.00;;
32864;SDS011;19219;44.500;11.188;2023-04-16T00:04:30;10.80;;;4.90;;
32864;SDS011;19219;44.500;11.188;2023-04-16T00:06:55;14.27;;;5.72;;
32864;SDS011;19219;44.500;11.188;2023-04-16T00:09:21;7.70;;;4.22;;
32864;SDS011;19219;44.500;11.188;2023-04-16T00:11:47;7.50;;;4.50;;
32864;SDS011;19219;44.500;11.188;2023-04-16T00:14:12;8.40;;;4.75;;
32864;SDS011;19219;44.500;11.188;2023-04-16T00:16:38;12.93;;;4.88;;
32864;SDS011;19219;44.500;11.188;2023-04-16T00:19:04;7.68;;;4.55;;
32864;SDS011;19219;44.500;11.188;2023-04-16T00:21:29;8.95;;;5.10;;
32864;SDS011;19219;44.500;11.188;2023-04-16T00:23:57;12.88;;;5.78;;
32864;SDS011;19219;44.500;11.188;2023-04-16T00:26:23;10.02;;;5.28;;
32864;SDS011;19219;44.500;11.188;2023-04-16T00:28:48;11.23;;;5.15;;
32864;SDS011;19219;44.500;11.188;2023-04-16T00:31:14;8.32;;;4.22;;
32864;SDS011;19219;44.500;11.188;2023-04-16T00:33:40;8.30;;;5.00;;
32864;SDS011;19219;44.500;11.188;2023-04-16T00:36:05;9.10;;;5.18;;
32864;SDS011;19219;44.500;11.188;2023-04-16T00:38:31;11.27;;;5.68;;
32864;SDS011;19219;44.500;11.188;2023-04-16T00:40:57;10.75;;;5.30;;
32864;SDS011;19219;44.500;11.188;2023-04-16T00:43:23;10.20;;;5.05;;
32864;SDS011;19219;44.500;11.188;2023-04-16T00:45:53;6.13;;;4.45;;
32864;SDS011;19219;44.500;11.188;2023-04-16T00:48:20;7.85;;;4.78;;
32864;SDS011;19219;44.500;11.188;2023-04-16T00:50:46;7.72;;;4.93;;
32864;SDS011;19219;44.500;11.188;2023-04-16T00:53:13;7.15;;;4.63;;
32864;SDS011;19219;44.500;11.188;2023-04-16T00:55:39;7.63;;;4.90;;
32864;SDS011;19219;44.500;11.188;2023-04-16T00:58:05;8.18;;;4.68;;
32864;SDS011;19219;44.500;11.188;2023-04-16T01:00:31;7.90;;;5.18;;
32864;SDS011;19219;44.500;11.188;2023-04-16T01:02:56;9.80;;;5.28;;
32864;SDS011;19219;44.500;11.188;2023-04-16T01:05:24;7.15;;;4.63;;
32864;SDS011;19219;44.500;11.188;2023-04-16T01:07:50;11.80;;;4.88;;
32864;SDS011;19219;44.500;11.188;2023-04-16T01:10:16;10.00;;;4.93;;
32864;SDS011;19219;44.500;11.188;2023-04-16T01:12:41;5.57;;;4.68;;
32864;SDS011;19219;44.500;11.188;2023-04-16T01:15:07;7.00;;;4.47;;
32864;SDS011;19219;44.500;11.188;2023-04-16T01:17:33;9.27;;;4.90;;
32864;SDS011;19219;44.500;11.188;2023-04-16T01:19:59;10.00;;;5.72;;
32864;SDS011;19219;44.500;11.188;2023-04-16T01:22:26;12.10;;;4.90;;
32864;SDS011;19219;44.500;11.188;2023-04-16T01:24:52;10.02;;;4.78;;
32864;SDS011;19219;44.500;11.188;2023-04-16T01:27:18;6.07;;;5.03;;
32864;SDS011;19219;44.500;11.188;2023-04-16T01:29:43;9.75;;;4.82;;
32864;SDS011;19219;44.500;11.188;2023-04-16T01:32:09;6.22;;;4.85;;
32864;SDS011;19219;44.500;11.188;2023-04-16T01:34:35;9.02;;;5.15;;
32864;SDS011;19219;44.500;11.188;2023-04-16T01:37:02;7.18;;;4.75;;
32864;SDS011;19219;44.500;11.188;2023-04-16T01:39:27;10.93;;;6.45;;
32864;SDS011;19219;44.500;11.188;2023-04-16T01:41:53;8.43;;;4.55;;
32864;SDS011;19219;44.500;11.188;2023-04-16T01:44:19;7.35;;;4.60;;
32864;SDS011;19219;44.500;11.188;2023-04-16T01:46:45;8.10;;;4.57;;
32864;SDS011;19219;44.500;11.188;2023-04-16T01:49:11;9.10;;;5.03;;
32864;SDS011;19219;44.500;11.188;2023-04-16T01:51:37;5.85;;;4.75;;
32864;SDS011;19219;44.500;11.188;2023-04-16T01:54:03;12.05;;;5.22;;
32864;SDS011;19219;44.500;11.188;2023-04-16T01:56:29;13.93;;;5.70;;
32864;SDS011;19219;44.500;11.188;2023-04-16T01:58:54;10.05;;;6.18;;
32864;SDS011;19219;44.500;11.188;2023-04-16T02:01:20;10.48;;;5.10;;
32864;SDS011;19219;44.500;11.188;2023-04-16T02:03:46;9.23;;;5.10;;
32864;SDS011;19219;44.500;11.188;2023-04-16T02:06:12;9.27;;;5.28;;
32864;SDS011;19219;44.500;11.188;2023-04-16T02:08:38;9.95;;;4.68;;
32864;SDS011;19219;44.500;11.188;2023-04-16T02:11:05;8.52;;;5.25;;
32864;SDS011;19219;44.500;11.188;2023-04-16T02:13:31;9.45;;;5.05;;
32864;SDS011;19219;44.500;11.188;2023-04-16T02:15:57;8.95;;;4.75;;
32864;SDS011;19219;44.500;11.188;2023-04-16T02:18:22;13.20;;;5.45;;
32864;SDS011;19219;44.500;11.188;2023-04-16T02:20:48;9.93;;;5.72;;
32864;SDS011;19219;44.500;11.188;2023-04-16T02:23:14;8.35;;;4.82;;
32864;SDS011;19219;44.500;11.188;2023-04-16T02:25:40;12.50;;;5.88;;
32864;SDS011;19219;44.500;11.188;2023-04-16T02:28:07;9.65;;;4.68;;
32864;SDS011;19219;44.500;11.188;2023-04-16T02:30:37;8.88;;;5.45;;
32864;SDS011;19219;44.500;11.188;2023-04-16T02:33:04;11.57;;;5.65;;
32864;SDS011;19219;44.500;11.188;2023-04-16T02:35:31;8.88;;;5.15;;
32864;SDS011;19219;44.500;11.188;2023-04-16T02:37:57;8.18;;;5.50;;
32864;SDS011;19219;44.500;11.188;2023-04-16T02:40:24;12.02;;;5.63;;
32864;SDS011;19219;44.500;11.188;2023-04-16T02:42:50;9.57;;;5.78;;
32864;SDS011;19219;44.500;11.188;2023-04-16T02:45:16;9.80;;;5.68;;
32864;SDS011;19219;44.500;11.188;2023-04-16T02:47:41;8.07;;;5.68;;
32864;SDS011;19219;44.500;11.188;2023-04-16T02:50:07;11.00;;;6.82;;
32864;SDS011;19219;44.500;11.188;2023-04-16T02:52:33;10.18;;;6.07;;
32864;SDS011;19219;44.500;11.188;2023-04-16T02:54:59;8.73;;;5.20;;
32864;SDS011;19219;44.500;11.188;2023-04-16T02:57:25;7.22;;;5.80;;
32864;SDS011;19219;44.500;11.188;2023-04-16T02:59:50;10.13;;;5.72;;
32864;SDS011;19219;44.500;11.188;2023-04-16T03:02:16;9.10;;;5.82;;
32864;SDS011;19219;44.500;11.188;2023-04-16T03:04:42;8.73;;;5.45;;
32864;SDS011;19219;44.500;11.188;2023-04-16T03:07:07;9.43;;;6.30;;
32864;SDS011;19219;44.500;11.188;2023-04-16T03:09:34;12.52;;;6.60;;
32864;SDS011;19219;44.500;11.188;2023-04-16T03:11:59;13.60;;;6.18;;
32864;SDS011;19219;44.500;11.188;2023-04-16T03:14:26;9.98;;;5.93;;
32864;SDS011;19219;44.500;11.188;2023-04-16T03:16:52;7.80;;;5.93;;
32864;SDS011;19219;44.500;11.188;2023-04-16T03:19:18;8.07;;;6.68;;
32864;SDS011;19219;44.500;11.188;2023-04-16T03:21:43;11.85;;;6.03;;
32864;SDS011;19219;44.500;11.188;2023-04-16T03:24:09;8.98;;;6.18;;
32864;SDS011;19219;44.500;11.188;2023-04-16T03:26:35;12.40;;;7.45;;
32864;SDS011;19219;44.500;11.188;2023-04-16T03:29:01;11.98;;;6.43;;
32864;SDS011;19219;44.500;11.188;2023-04-16T03:31:27;11.45;;;5.85;;
32864;SDS011;19219;44.500;11.188;2023-04-16T03:33:52;7.50;;;5.82;;
32864;SDS011;19219;44.500;11.188;2023-04-16T03:36:18;14.63;;;6.68;;
32864;SDS011;19219;44.500;11.188;2023-04-16T03:38:44;15.35;;;7.60;;
32864;SDS011;19219;44.500;11.188;2023-04-16T03:41:10;18.92;;;7.38;;
32864;SDS011;19219;44.500;11.188;2023-04-16T03:43:35;10.45;;;6.80;;
32864;SDS011;19219;44.500;11.188;2023-04-16T03:46:01;8.18;;;5.88;;
32864;SDS011;19219;44.500;11.188;2023-04-16T03:48:27;10.32;;;6.90;;
32864;SDS011;19219;44.500;11.188;2023-04-16T03:50:52;10.10;;;6.53;;
32864;SDS011;19219;44.500;11.188;2023-04-16T03:53:18;15.85;;;6.68;;
32864;SDS011;19219;44.500;11.188;2023-04-16T03:55:44;12.02;;;6.47;;
32864;SDS011;19219;44.500;11.188;2023-04-16T03:58:09;8.70;;;7.25;;
32864;SDS011;19219;44.500;11.188;2023-04-16T04:00:35;10.45;;;7.22;;
32864;SDS011;19219;44.500;11.188;2023-04-16T04:03:01;15.02;;;7.35;;
32864;SDS011;19219;44.500;11.188;2023-04-16T04:05:26;45.72;;;25.45;;
32864;SDS011;19219;44.500;11.188;2023-04-16T04:07:52;12.82;;;8.80;;
32864;SDS011;19219;44.500;11.188;2023-04-16T04:10:18;10.88;;;6.70;;
32864;SDS011;19219;44.500;11.188;2023-04-16T04:12:43;12.75;;;7.30;;
32864;SDS011;19219;44.500;11.188;2023-04-16T04:15:09;8.50;;;6.60;;
32864;SDS011;19219;44.500;11.188;2023-04-16T04:17:35;13.63;;;7.75;;
32864;SDS011;19219;44.500;11.188;2023-04-16T04:20:01;12.73;;;7.55;;
32864;SDS011;19219;44.500;11.188;2023-04-16T04:22:27;13.43;;;7.40;;
32864;SDS011;19219;44.500;11.188;2023-04-16T04:24:53;9.65;;;6.28;;
32864;SDS011;19219;44.500;11.188;2023-04-16T04:27:18;9.73;;;7.88;;
32864;SDS011;19219;44.500;11.188;2023-04-16T04:29:44;11.85;;;6.68;;
32864;SDS011;19219;44.500;11.188;2023-04-16T04:32:10;9.50;;;5.90;;
32864;SDS011;19219;44.500;11.188;2023-04-16T04:34:35;9.00;;;6.65;;
32864;SDS011;19219;44.500;11.188;2023-04-16T04:37:01;12.30;;;6.90;;
32864;SDS011;19219;44.500;11.188;2023-04-16T04:39:27;13.15;;;7.72;;
32864;SDS011;19219;44.500;11.188;2023-04-16T04:41:52;13.52;;;7.20;;
32864;SDS011;19219;44.500;11.188;2023-04-16T04:44:18;13.40;;;7.65;;
32864;SDS011;19219;44.500;11.188;2023-04-16T04:46:44;10.40;;;6.65;;
32864;SDS011;19219;44.500;11.188;2023-04-16T04:49:09;17.15;;;7.68;;
32864;SDS011;19219;44.500;11.188;2023-04-16T04:51:35;12.80;;;6.80;;
32864;SDS011;19219;44.500;11.188;2023-04-16T04:54:01;13.27;;;7.85;;
32864;SDS011;19219;44.500;11.188;2023-04-16T04:56:26;16.35;;;8.32;;
32864;SDS011;19219;44.500;11.188;2023-04-16T04:58:53;14.05;;;7.40;;
32864;SDS011;19219;44.500;11.188;2023-04-16T05:01:18;9.85;;;7.22;;
32864;SDS011;19219;44.500;11.188;2023-04-16T05:03:44;10.40;;;7.55;;
32864;SDS011;19219;44.500;11.188;2023-04-16T05:06:10;11.10;;;6.85;;
32864;SDS011;19219;44.500;11.188;2023-04-16T05:08:36;11.05;;;7.65;;
32864;SDS011;19219;44.500;11.188;2023-04-16T05:11:01;11.95;;;7.63;;
32864;SDS011;19219;44.500;11.188;2023-04-16T05:13:27;18.20;;;7.55;;
32864;SDS011;19219;44.500;11.188;2023-04-16T05:15:53;10.38;;;6.07;;
32864;SDS011;19219;44.500;11.188;2023-04-16T05:18:18;10.57;;;6.43;;
32864;SDS011;19219;44.500;11.188;2023-04-16T05:20:44;17.63;;;8.48;;
32864;SDS011;19219;44.500;11.188;2023-04-16T05:23:10;13.95;;;7.75;;
32864;SDS011;19219;44.500;11.188;2023-04-16T05:25:35;14.45;;;6.97;;
32864;SDS011;19219;44.500;11.188;2023-04-16T05:28:01;12.05;;;6.78;;
32864;SDS011;19219;44.500;11.188;2023-04-16T05:30:27;12.38;;;7.78;;
32864;SDS011;19219;44.500;11.188;2023-04-16T05:32:53;13.60;;;7.60;;
32864;SDS011;19219;44.500;11.188;2023-04-16T05:35:18;12.48;;;7.25;;
32864;SDS011;19219;44.500;11.188;2023-04-16T05:37:44;12.55;;;7.40;;
32864;SDS011;19219;44.500;11.188;2023-04-16T05:40:10;19.70;;;7.93;;
32864;SDS011;19219;44.500;11.188;2023-04-16T05:42:37;12.50;;;7.20;;
32864;SDS011;19219;44.500;11.188;2023-04-16T05:45:03;10.50;;;6.80;;
32864;SDS011;19219;44.500;11.188;2023-04-16T05:47:29;14.27;;;8.07;;
32864;SDS011;19219;44.500;11.188;2023-04-16T05:49:55;13.30;;;6.97;;
32864;SDS011;19219;44.500;11.188;2023-04-16T05:52:20;9.32;;;6.88;;
32864;SDS011;19219;44.500;11.188;2023-04-16T05:54:46;12.65;;;7.40;;
32864;SDS011;19219;44.500;11.188;2023-04-16T05:57:12;7.43;;;6.72;;
32864;SDS011;19219;44.500;11.188;2023-04-16T05:59:38;10.05;;;6.65;;
32864;SDS011;19219;44.500;11.188;2023-04-16T06:02:03;14.48;;;7.53;;
32864;SDS011;19219;44.500;11.188;2023-04-16T06:04:29;11.88;;;8.23;;
32864;SDS011;19219;44.500;11.188;2023-04-16T06:06:55;14.13;;;7.15;;
32864;SDS011;19219;44.500;11.188;2023-04-16T06:09:21;12.82;;;6.95;;
32864;SDS011;19219;44.500;11.188;2023-04-16T06:11:47;11.35;;;6.63;;
32864;SDS011;19219;44.500;11.188;2023-04-16T06:14:13;10.90;;;6.40;;
32864;SDS011;19219;44.500;11.188;2023-04-16T06:16:38;8.23;;;6.28;;
32864;SDS011;19219;44.500;11.188;2023-04-16T06:19:04;11.68;;;5.57;;
32864;SDS011;19219;44.500;11.188;2023-04-16T06:21:30;7.57;;;4.88;;
32864;SDS011;19219;44.500;11.188;2023-04-16T06:23:56;11.05;;;5.05;;
32864;SDS011;19219;44.500;11.188;2023-04-16T06:26:21;9.18;;;5.00;;
32864;SDS011;19219;44.500;11.188;2023-04-16T06:28:47;8.68;;;5.45;;
32864;SDS011;19219;44.500;11.188;2023-04-16T06:31:13;8.88;;;4.82;;
32864;SDS011;19219;44.500;11.188;2023-04-16T06:33:39;10.85;;;4.97;;
32864;SDS011;19219;44.500;11.188;2023-04-16T06:36:05;12.50;;;7.97;;
32864;SDS011;19219;44.500;11.188;2023-04-16T06:38:31;16.15;;;6.30;;
32864;SDS011;19219;44.500;11.188;2023-04-16T06:40:56;13.70;;;5.53;;
32864;SDS011;19219;44.500;11.188;2023-04-16T06:43:23;10.27;;;5.35;;
32864;SDS011;19219;44.500;11.188;2023-04-16T06:45:49;10.98;;;4.97;;
32864;SDS011;19219;44.500;11.188;2023-04-16T06:48:15;9.30;;;4.15;;
32864;SDS011;19219;44.500;11.188;2023-04-16T06:50:40;13.48;;;4.38;;
32864;SDS011;19219;44.500;11.188;2023-04-16T06:53:06;7.22;;;4.60;;
32864;SDS011;19219;44.500;11.188;2023-04-16T06:55:32;9.15;;;4.85;;
32864;SDS011;19219;44.500;11.188;2023-04-16T06:57:57;9.10;;;4.25;;
32864;SDS011;19219;44.500;11.188;2023-04-16T07:00:23;10.75;;;4.50;;
32864;SDS011;19219;44.500;11.188;2023-04-16T07:02:49;13.63;;;6.25;;
32864;SDS011;19219;44.500;11.188;2023-04-16T07:05:14;11.95;;;5.15;;
32864;SDS011;19219;44.500;11.188;2023-04-16T07:07:40;8.23;;;4.53;;
32864;SDS011;19219;44.500;11.188;2023-04-16T07:10:06;6.63;;;4.13;;
32864;SDS011;19219;44.500;11.188;2023-04-16T07:12:32;5.57;;;2.95;;
32864;SDS011;19219;44.500;11.188;2023-04-16T07:14:58;9.25;;;3.20;;
32864;SDS011;19219;44.500;11.188;2023-04-16T07:17:23;8.80;;;3.40;;
32864;SDS011;19219;44.500;11.188;2023-04-16T07:19:50;10.05;;;3.53;;
32864;SDS011;19219;44.500;11.188;2023-04-16T07:22:16;7.28;;;2.78;;
32864;SDS011;19219;44.500;11.188;2023-04-16T07:24:41;8.88;;;2.80;;
32864;SDS011;19219;44.500;11.188;2023-04-16T07:27:07;9.80;;;5.82;;
32864;SDS011;19219;44.500;11.188;2023-04-16T07:29:33;9.75;;;3.92;;
32864;SDS011;19219;44.500;11.188;2023-04-16T07:31:58;7.40;;;3.42;;
32864;SDS011;19219;44.500;11.188;2023-04-16T07:34:24;9.70;;;3.50;;
32864;SDS011;19219;44.500;11.188;2023-04-16T07:36:50;9.07;;;3.75;;
32864;SDS011;19219;44.500;11.188;2023-04-16T07:39:16;14.02;;;8.05;;
32864;SDS011;19219;44.500;11.188;2023-04-16T07:41:42;6.57;;;3.38;;
32864;SDS011;19219;44.500;11.188;2023-04-16T07:44:08;11.18;;;3.65;;
32864;SDS011;19219;44.500;11.188;2023-04-16T07:46:33;10.43;;;3.38;;
32864;SDS011;19219;44.500;11.188;2023-04-16T07:48:59;10.95;;;3.60;;
32864;SDS011;19219;44.500;11.188;2023-04-16T07:51:25;5.63;;;2.97;;
32864;SDS011;19219;44.500;11.188;2023-04-16T07:53:51;6.55;;;3.15;;
32864;SDS011;19219;44.500;11.188;2023-04-16T07:56:16;7.05;;;3.00;;
32864;SDS011;19219;44.500;11.188;2023-04-16T07:58:42;5.50;;;2.55;;
32864;SDS011;19219;44.500;11.188;2023-04-16T08:01:08;7.88;;;2.53;;
32864;SDS011;19219;44.500;11.188;2023-04-16T08:03:33;2.83;;;2.13;;
32864;SDS011;19219;44.500;11.188;2023-04-16T08:05:59;9.00;;;3.03;;
32864;SDS011;19219;44.500;11.188;2023-04-16T08:08:31;5.88;;;2.88;;
32864;SDS011;19219;44.500;11.188;2023-04-16T08:10:56;8.90;;;3.22;;
32864;SDS011;19219;44.500;11.188;2023-04-16T08:13:23;12.50;;;3.05;;
32864;SDS011;19219;44.500;11.188;2023-04-16T08:15:48;8.32;;;2.85;;
32864;SDS011;19219;44.500;11.188;2023-04-16T08:18:14;7.15;;;2.00;;
32864;SDS011;19219;44.500;11.188;2023-04-16T08:20:40;5.78;;;2.83;;
32864;SDS011;19219;44.500;11.188;2023-04-16T08:23:06;6.00;;;2.35;;
32864;SDS011;19219;44.500;11.188;2023-04-16T08:25:32;2.38;;;1.80;;
32864;SDS011;19219;44.500;11.188;2023-04-16T08:27:58;7.88;;;2.40;;
32864;SDS011;19219;44.500;11.188;2023-04-16T08:30:23;6.10;;;2.35;;
32864;SDS011;19219;44.500;11.188;2023-04-16T08:32:49;3.70;;;2.08;;
32864;SDS011;19219;44.500;11.188;2023-04-16T08:35:15;4.95;;;1.92;;
32864;SDS011;19219;44.500;11.188;2023-04-16T08:37:41;10.82;;;2.35;;
32864;SDS011;19219;44.500;11.188;2023-04-16T08:40:07;7.63;;;2.42;;
32864;SDS011;19219;44.500;11.188;2023-04-16T08:42:35;6.05;;;2.55;;
32864;SDS011;19219;44.500;11.188;2023-04-16T08:47:42;7.53;;;3.00;;
32864;SDS011;19219;44.500;11.188;2023-04-16T08:50:12;7.20;;;2.25;;
32864;SDS011;19219;44.500;11.188;2023-04-16T08:52:55;2.70;;;1.50;;
32864;SDS011;19219;44.500;11.188;2023-04-16T08:55:31;3.33;;;1.60;;
32864;SDS011;19219;44.500;11.188;2023-04-16T08:58:03;1.63;;;1.43;;
32864;SDS011;19219;44.500;11.188;2023-04-16T09:00:37;1.80;;;1.23;;
32864;SDS011;19219;44.500;11.188;2023-04-16T09:03:04;3.08;;;2.35;;
32864;SDS011;19219;44.500;11.188;2023-04-16T09:05:30;2.35;;;1.50;;
32864;SDS011;19219;44.500;11.188;2023-04-16T09:07:58;2.15;;;1.90;;
32864;SDS011;19219;44.500;11.188;2023-04-16T09:10:26;2.78;;;1.55;;
32864;SDS011;19219;44.500;11.188;2023-04-16T09:12:55;3.35;;;1.80;;
32864;SDS011;19219;44.500;11.188;2023-04-16T09:15:21;1.80;;;1.55;;
32864;SDS011;19219;44.500;11.188;2023-04-16T09:17:48;2.53;;;1.85;;
32864;SDS011;19219;44.500;11.188;2023-04-16T09:20:13;2.25;;;2.00;;
32864;SDS011;19219;44.500;11.188;2023-04-16T09:22:39;3.72;;;2.05;;
32864;SDS011;19219;44.500;11.188;2023-04-16T09:25:05;2.45;;;2.28;;
32864;SDS011;19219;44.500;11.188;2023-04-16T09:27:32;4.93;;;3.47;;
32864;SDS011;19219;44.500;11.188;2023-04-16T09:29:58;2.50;;;2.20;;
32864;SDS011;19219;44.500;11.188;2023-04-16T09:32:27;7.28;;;5.35;;
32864;SDS011;19219;44.500;11.188;2023-04-16T09:34:59;3.07;;;2.53;;
32864;SDS011;19219;44.500;11.188;2023-04-16T09:37:29;4.90;;;2.88;;
32864;SDS011;19219;44.500;11.188;2023-04-16T09:39:59;6.35;;;2.75;;
32864;SDS011;19219;44.500;11.188;2023-04-16T09:42:29;2.40;;;2.20;;
32864;SDS011;19219;44.500;11.188;2023-04-16T09:44:57;5.25;;;3.53;;
32864;SDS011;19219;44.500;11.188;2023-04-16T09:47:24;3.00;;;2.42;;
32864;SDS011;19219;44.500;11.188;2023-04-16T09:50:02;2.90;;;2.60;;
32864;SDS011;19219;44.500;11.188;2023-04-16T09:52:27;4.85;;;2.47;;
32864;SDS011;19219;44.500;11.188;2023-04-16T09:54:53;3.80;;;2.03;;
32864;SDS011;19219;44.500;11.188;2023-04-16T09:57:20;2.45;;;1.67;;
32864;SDS011;19219;44.500;11.188;2023-04-16T09:59:47;4.43;;;2.17;;
32864;SDS011;19219;44.500;11.188;2023-04-16T10:02:16;3.70;;;1.80;;
32864;SDS011;19219;44.500;11.188;2023-04-16T10:04:49;3.25;;;1.70;;
32864;SDS011;19219;44.500;11.188;2023-04-16T10:07:16;8.25;;;5.50;;
32864;SDS011;19219;44.500;11.188;2023-04-16T10:09:43;4.05;;;3.15;;
32864;SDS011;19219;44.500;11.188;2023-04-16T10:12:09;17.10;;;11.50;;
32864;SDS011;19219;44.500;11.188;2023-04-16T10:14:37;6.03;;;4.15;;
32864;SDS011;19219;44.500;11.188;2023-04-16T10:17:03;4.07;;;3.45;;
32864;SDS011;19219;44.500;11.188;2023-04-16T10:19:30;4.60;;;3.47;;
32864;SDS011;19219;44.500;11.188;2023-04-16T10:21:56;4.35;;;3.63;;
32864;SDS011;19219;44.500;11.188;2023-04-16T10:24:23;6.25;;;4.35;;
32864;SDS011;19219;44.500;11.188;2023-04-16T10:26:50;3.08;;;2.60;;
32864;SDS011;19219;44.500;11.188;2023-04-16T10:29:17;44.15;;;27.92;;
32864;SDS011;19219;44.500;11.188;2023-04-16T10:31:46;30.77;;;18.20;;
32864;SDS011;19219;44.500;11.188;2023-04-16T10:34:13;47.05;;;28.75;;
32864;SDS011;19219;44.500;11.188;2023-04-16T10:36:39;16.23;;;9.65;;
32864;SDS011;19219;44.500;11.188;2023-04-16T10:39:09;4.75;;;3.38;;
32864;SDS011;19219;44.500;11.188;2023-04-16T10:41:36;3.65;;;1.75;;
32864;SDS011;19219;44.500;11.188;2023-04-16T10:44:06;3.80;;;1.77;;
32864;SDS011;19219;44.500;11.188;2023-04-16T10:46:39;2.58;;;1.50;;
32864;SDS011;19219;44.500;11.188;2023-04-16T10:51:38;6.80;;;2.20;;
32864;SDS011;19219;44.500;11.188;2023-04-16T10:56:41;5.10;;;1.92;;
32864;SDS011;19219;44.500;11.188;2023-04-16T10:59:10;2.00;;;1.80;;
32864;SDS011;19219;44.500;11.188;2023-04-16T11:01:37;1.60;;;1.50;;
32864;SDS011;19219;44.500;11.188;2023-04-16T11:12:40;1.33;;;1.23;;
32864;SDS011;19219;44.500;11.188;2023-04-16T11:15:09;2.17;;;1.98;;
32864;SDS011;19219;44.500;11.188;2023-04-16T11:20:24;5.25;;;4.10;;
32864;SDS011;19219;44.500;11.188;2023-04-16T11:22:55;2.05;;;1.30;;
32864;SDS011;19219;44.500;11.188;2023-04-16T11:25:22;1.65;;;1.23;;
32864;SDS011;19219;44.500;11.188;2023-04-16T11:27:50;4.60;;;1.50;;
32864;SDS011;19219;44.500;11.188;2023-04-16T11:30:16;1.30;;;1.13;;
32864;SDS011;19219;44.500;11.188;2023-04-16T11:32:43;2.53;;;1.52;;
32864;SDS011;19219;44.500;11.188;2023-04-16T11:35:13;2.67;;;1.45;;
32864;SDS011;19219;44.500;11.188;2023-04-16T11:37:40;1.33;;;0.93;;
32864;SDS011;19219;44.500;11.188;2023-04-16T11:40:07;1.35;;;1.25;;
32864;SDS011;19219;44.500;11.188;2023-04-16T11:42:36;1.63;;;1.17;;
32864;SDS011;19219;44.500;11.188;2023-04-16T11:45:04;1.20;;;1.10;;
32864;SDS011;19219;44.500;11.188;2023-04-16T11:47:34;2.10;;;1.20;;
32864;SDS011;19219;44.500;11.188;2023-04-16T11:50:20;5.97;;;3.35;;
32864;SDS011;19219;44.500;11.188;2023-04-16T11:52:47;1.65;;;1.40;;
32864;SDS011;19219;44.500;11.188;2023-04-16T11:55:14;5.82;;;1.45;;
32864;SDS011;19219;44.500;11.188;2023-04-16T11:57:40;1.60;;;1.30;;
32864;SDS011;19219;44.500;11.188;2023-04-16T12:00:06;2.97;;;2.15;;
32864;SDS011;19219;44.500;11.188;2023-04-16T12:02:41;5.60;;;2.97;;
32864;SDS011;19219;44.500;11.188;2023-04-16T12:07:56;1.00;;;0.95;;
32864;SDS011;19219;44.500;11.188;2023-04-16T12:10:22;1.30;;;1.10;;
32864;SDS011;19219;44.500;11.188;2023-04-16T12:12:48;0.73;;;0.73;;
32864;SDS011;19219;44.500;11.188;2023-04-16T12:15:14;1.40;;;1.13;;
32864;SDS011;19219;44.500;11.188;2023-04-16T12:17:40;0.70;;;0.70;;
32864;SDS011;19219;44.500;11.188;2023-04-16T12:20:12;1.02;;;0.77;;
32864;SDS011;19219;44.500;11.188;2023-04-16T12:22:43;1.30;;;1.00;;
32864;SDS011;19219;44.500;11.188;2023-04-16T12:25:14;1.08;;;0.80;;
32864;SDS011;19219;44.500;11.188;2023-04-16T12:27:48;0.95;;;0.95;;
32864;SDS011;19219;44.500;11.188;2023-04-16T12:30:16;0.60;;;0.57;;
32864;SDS011;19219;44.500;11.188;2023-04-16T12:32:43;3.08;;;1.90;;
32864;SDS011;19219;44.500;11.188;2023-04-16T12:35:10;1.25;;;1.15;;
32864;SDS011;19219;44.500;11.188;2023-04-16T12:37:37;0.77;;;0.77;;
32864;SDS011;19219;44.500;11.188;2023-04-16T12:40:03;2.17;;;0.60;;
32864;SDS011;19219;44.500;11.188;2023-04-16T12:42:30;1.15;;;0.70;;
32864;SDS011;19219;44.500;11.188;2023-04-16T12:45:03;1.15;;;0.65;;
32864;SDS011;19219;44.500;11.188;2023-04-16T12:47:30;0.85;;;0.73;;
32864;SDS011;19219;44.500;11.188;2023-04-16T12:49:56;0.60;;;0.60;;
32864;SDS011;19219;44.500;11.188;2023-04-16T12:52:26;3.90;;;1.00;;
32864;SDS011;19219;44.500;11.188;2023-04-16T12:54:51;1.98;;;0.77;;
32864;SDS011;19219;44.500;11.188;2023-04-16T12:57:17;1.00;;;0.95;;
32864;SDS011;19219;44.500;11.188;2023-04-16T12:59:43;1.70;;;0.98;;
32864;SDS011;19219;44.500;11.188;2023-04-16T13:02:10;2.15;;;0.95;;
32864;SDS011;19219;44.500;11.188;2023-04-16T13:04:36;0.82;;;0.77;;
32864;SDS011;19219;44.500;11.188;2023-04-16T13:07:02;1.20;;;0.65;;
32864;SDS011;19219;44.500;11.188;2023-04-16T13:09:28;0.60;;;0.60;;
32864;SDS011;19219;44.500;11.188;2023-04-16T13:11:53;0.77;;;0.77;;
32864;SDS011;19219;44.500;11.188;2023-04-16T13:14:19;1.00;;;0.90;;
32864;SDS011;19219;44.500;11.188;2023-04-16T13:16:45;1.73;;;0.93;;
32864;SDS011;19219;44.500;11.188;2023-04-16T13:19:11;1.40;;;0.93;;
32864;SDS011;19219;44.500;11.188;2023-04-16T13:21:36;0.82;;;0.68;;
32864;SDS011;19219;44.500;11.188;2023-04-16T13:24:02;0.80;;;0.80;;
32864;SDS011;19219;44.500;11.188;2023-04-16T13:26:28;1.35;;;0.82;;
32864;SDS011;19219;44.500;11.188;2023-04-16T13:28:54;1.00;;;0.90;;
32864;SDS011;19219;44.500;11.188;2023-04-16T13:31:19;3.15;;;1.05;;
32864;SDS011;19219;44.500;11.188;2023-04-16T13:33:46;0.70;;;0.70;;
32864;SDS011;19219;44.500;11.188;2023-04-16T13:36:12;1.42;;;1.35;;
32864;SDS011;19219;44.500;11.188;2023-04-16T13:38:38;0.73;;;0.73;;
32864;SDS011;19219;44.500;11.188;2023-04-16T13:41:04;0.90;;;0.90;;
32864;SDS011;19219;44.500;11.188;2023-04-16T13:43:30;1.92;;;0.70;;
32864;SDS011;19219;44.500;11.188;2023-04-16T13:45:56;2.15;;;1.10;;
32864;SDS011;19219;44.500;11.188;2023-04-16T13:48:22;1.20;;;1.10;;
32864;SDS011;19219;44.500;11.188;2023-04-16T13:50:48;2.80;;;0.65;;
32864;SDS011;19219;44.500;11.188;2023-04-16T13:53:14;0.55;;;0.30;;
32864;SDS011;19219;44.500;11.188;2023-04-16T13:55:39;1.75;;;0.85;;
32864;SDS011;19219;44.500;11.188;2023-04-16T13:58:06;3.38;;;2.40;;
32864;SDS011;19219;44.500;11.188;2023-04-16T14:00:31;1.63;;;1.05;;
32864;SDS011;19219;44.500;11.188;2023-04-16T14:02:57;2.60;;;0.80;;
32864;SDS011;19219;44.500;11.188;2023-04-16T14:05:23;0.95;;;0.90;;
32864;SDS011;19219;44.500;11.188;2023-04-16T14:07:48;1.90;;;1.05;;
32864;SDS011;19219;44.500;11.188;2023-04-16T14:10:15;0.85;;;0.77;;
32864;SDS011;19219;44.500;11.188;2023-04-16T14:12:41;0.43;;;0.40;;
32864;SDS011;19219;44.500;11.188;2023-04-16T14:15:08;0.50;;;0.50;;
32864;SDS011;19219;44.500;11.188;2023-04-16T14:17:34;1.75;;;0.63;;
32864;SDS011;19219;44.500;11.188;2023-04-16T14:20:01;0.57;;;0.57;;
32864;SDS011;19219;44.500;11.188;2023-04-16T14:22:29;0.70;;;0.70;;
32864;SDS011;19219;44.500;11.188;2023-04-16T14:24:54;0.70;;;0.52;;
32864;SDS011;19219;44.500;11.188;2023-04-16T14:27:20;1.75;;;0.80;;
32864;SDS011;19219;44.500;11.188;2023-04-16T14:29:46;1.02;;;0.80;;
32864;SDS011;19219;44.500;11.188;2023-04-16T14:32:11;1.70;;;0.90;;
32864;SDS011;19219;44.500;11.188;2023-04-16T14:34:37;1.73;;;0.80;;
32864;SDS011;19219;44.500;11.188;2023-04-16T14:37:03;1.23;;;0.70;;
32864;SDS011;19219;44.500;11.188;2023-04-16T14:39:29;0.70;;;0.70;;
32864;SDS011;19219;44.500;11.188;2023-04-16T14:41:55;2.60;;;0.95;;
32864;SDS011;19219;44.500;11.188;2023-04-16T14:44:20;0.70;;;0.70;;
32864;SDS011;19219;44.500;11.188;2023-04-16T14:46:46;3.55;;;1.17;;
32864;SDS011;19219;44.500;11.188;2023-04-16T14:49:12;0.70;;;0.70;;